Time;durP1;ratioP1;P1;durP2;ratioP2;P2;SDS_P1;SDS_P2;PMS_P1;PMS_P2;Temp;Humidity;BMP_temperature;BMP_pressure;BME280_temperature;BME280_humidity;BME280_pressure;Samples;Min_cycle;Max_cycle;Signal;HPM_P1;HPM_P2
2022/03/15 00:02:14;;;;;;;;;;;;;;;4.98;86.31;102744.28;5011514;28;20006;-72
2022/03/15 00:04:40;;;;;;;;;;;;;;;5.02;85.97;102733.19;5008172;28;20289;-72
2022/03/15 00:07:10;;;;;;;;;;;;;;;5.03;85.98;102746.22;5032329;28;20334;-72
2022/03/15 00:09:35;;;;;;;;;;;;;;;5.03;86.16;102742.75;5031903;28;20400;-72
2022/03/15 00:12:02;;;;;;;;;;;;;;;5.05;85.90;102741.09;5016187;28;19917;-72
2022/03/15 00:14:27;;;;;;;;;;;;;;;5.08;85.90;102736.03;5015873;28;19924;-73
2022/03/15 00:16:54;;;;;;;;;;;;;;;5.13;85.84;102738.81;5013342;28;19917;-72
2022/03/15 00:19:19;;;;;;;;;;;;;;;5.17;85.48;102733.81;5014464;28;19917;-72
2022/03/15 00:21:45;;;;;;;;;;;;;;;5.25;84.94;102736.72;5013948;28;19939;-72
2022/03/15 00:24:10;;;;;;;;;;;;;;;5.29;84.82;102727.34;5012868;28;20289;-73
2022/03/15 00:26:36;;;;;;;;;;;;;;;5.32;84.37;102723.16;5012721;28;19920;-72
2022/03/15 00:29:01;;;;;;;;;;;;;;;5.33;84.07;102724.94;5007276;28;21298;-72
2022/03/15 00:31:26;;;;;;;;;;;;;;;5.32;83.75;102722.28;5005107;28;19925;-72
2022/03/15 00:33:52;;;;;;;;;;;;;;;5.28;83.46;102728.16;5029633;28;19913;-73
2022/03/15 00:36:17;;;;;;;;;;;;;;;5.23;83.02;102733.19;5010123;28;19967;-72
2022/03/15 00:38:42;;;;;;;;;;;;;;;5.23;84.03;102732.28;5014379;28;19959;-73
2022/03/15 00:41:08;;;;;;;;;;;;;;;5.23;82.74;102737.47;5009798;28;19963;-72
2022/03/15 00:43:34;;;;;;;;;;;;;;;5.22;83.48;102735.72;5011842;28;20293;-72
2022/03/15 00:46:00;;;;;;;;;;;;;;;5.21;82.70;102729.63;5013226;28;20374;-72
2022/03/15 00:48:25;;;;;;;;;;;;;;;5.19;82.75;102742.56;5029439;28;19978;-72
2022/03/15 00:50:52;;;;;;;;;;;;;;;5.18;82.49;102738.16;5014178;28;20353;-72
2022/03/15 00:53:18;;;;;;;;;;;;;;;5.17;82.42;102738.13;5028878;28;19955;-72
2022/03/15 00:55:43;;;;;;;;;;;;;;;5.11;81.63;102738.75;5015111;28;19921;-72
2022/03/15 00:58:09;;;;;;;;;;;;;;;5.03;81.73;102729.78;5014550;28;19933;-72
2022/03/15 01:00:35;;;;;;;;;;;;;;;5.03;81.85;102725.44;5014296;28;19923;-72
2022/03/15 01:03:01;;;;;;;;;;;;;;;5.03;82.41;102727.16;5022129;28;19959;-72
2022/03/15 01:05:26;;;;;;;;;;;;;;;5.03;82.10;102735.84;5005829;28;19965;-73
2022/03/15 01:07:51;;;;;;;;;;;;;;;5.04;82.46;102723.72;5029442;28;19967;-72
2022/03/15 01:10:17;;;;;;;;;;;;;;;5.02;82.38;102721.06;5031031;28;19913;-73
2022/03/15 01:12:42;;;;;;;;;;;;;;;5.01;81.42;102724.50;5022518;28;20089;-72
2022/03/15 01:15:08;;;;;;;;;;;;;;;4.98;81.24;102718.28;5025118;28;20348;-73
2022/03/15 01:17:36;;;;;;;;;;;;;;;4.94;81.61;102727.69;5009633;28;19917;-72
2022/03/15 01:20:03;;;;;;;;;;;;;;;4.91;82.24;102734.44;5014799;28;20265;-72
2022/03/15 01:22:28;;;;;;;;;;;;;;;4.90;82.28;102730.06;5028749;28;19920;-72
2022/03/15 01:24:54;;;;;;;;;;;;;;;4.86;83.19;102729.94;5013548;28;20440;-73
2022/03/15 01:27:20;;;;;;;;;;;;;;;4.83;82.52;102732.41;5003676;28;19921;-72
2022/03/15 01:29:45;;;;;;;;;;;;;;;4.79;82.61;102725.31;5011403;28;19975;-72
2022/03/15 01:32:11;;;;;;;;;;;;;;;4.76;82.70;102713.91;5012587;28;19921;-72
2022/03/15 01:34:36;;;;;;;;;;;;;;;4.74;82.27;102711.25;5013504;28;19921;-72
2022/03/15 01:37:02;;;;;;;;;;;;;;;4.72;81.95;102712.00;5004734;28;20024;-72
2022/03/15 01:39:27;;;;;;;;;;;;;;;4.66;82.03;102702.25;5007740;28;20094;-72
2022/03/15 01:41:52;;;;;;;;;;;;;;;4.63;80.90;102702.13;5027019;28;19913;-72
2022/03/15 01:44:19;;;;;;;;;;;;;;;4.59;81.38;102693.28;5027969;28;19948;-72
2022/03/15 01:46:46;;;;;;;;;;;;;;;4.57;80.92;102700.16;5027643;28;19982;-72
2022/03/15 01:49:11;;;;;;;;;;;;;;;4.54;81.10;102696.50;5025469;28;19965;-72
2022/03/15 01:51:40;;;;;;;;;;;;;;;4.51;79.78;102692.06;5030304;28;19948;-72
2022/03/15 01:54:06;;;;;;;;;;;;;;;4.49;80.37;102696.31;5009160;28;19931;-72
2022/03/15 01:56:34;;;;;;;;;;;;;;;4.46;80.65;102688.41;5028607;28;19916;-72
2022/03/15 01:59:00;;;;;;;;;;;;;;;4.42;80.09;102691.69;5025442;28;19952;-72
2022/03/15 02:01:25;;;;;;;;;;;;;;;4.40;81.16;102681.25;5023085;28;19948;-72
2022/03/15 02:03:51;;;;;;;;;;;;;;;4.39;81.00;102676.84;5022228;28;19959;-72
2022/03/15 02:06:17;;;;;;;;;;;;;;;4.40;81.53;102686.44;5012079;28;20008;-71
2022/03/15 02:08:42;;;;;;;;;;;;;;;4.39;82.06;102684.66;5010664;28;20388;-72
2022/03/15 02:11:08;;;;;;;;;;;;;;;4.36;82.83;102684.53;5010117;28;19916;-73
2022/03/15 02:13:34;;;;;;;;;;;;;;;4.34;83.57;102687.06;5009230;28;20425;-73
2022/03/15 02:16:00;;;;;;;;;;;;;;;4.28;83.54;102681.59;5020465;28;20011;-72
2022/03/15 02:18:27;;;;;;;;;;;;;;;4.27;83.74;102687.59;5029629;28;19917;-72
2022/03/15 02:20:55;;;;;;;;;;;;;;;4.27;84.63;102681.53;5025516;28;19924;-72
2022/03/15 02:23:20;;;;;;;;;;;;;;;4.24;84.08;102676.19;5006729;28;19913;-72
2022/03/15 02:25:46;;;;;;;;;;;;;;;4.23;84.04;102666.66;5013563;28;20363;-72
2022/03/15 02:28:11;;;;;;;;;;;;;;;4.23;83.41;102666.66;5010716;28;20021;-72
2022/03/15 02:30:36;;;;;;;;;;;;;;;4.23;83.22;102675.31;5011071;28;20055;-71
2022/03/15 02:33:02;;;;;;;;;;;;;;;4.21;82.54;102665.69;5023368;28;19917;-72
2022/03/15 02:35:28;;;;;;;;;;;;;;;4.22;82.58;102657.06;5029690;28;19917;-72
2022/03/15 02:37:53;;;;;;;;;;;;;;;4.20;82.21;102653.53;5013421;28;19931;-72
2022/03/15 02:40:18;;;;;;;;;;;;;;;4.16;81.67;102655.97;5012451;28;20373;-72
2022/03/15 02:42:43;;;;;;;;;;;;;;;4.14;81.84;102648.97;5009132;28;19949;-72
2022/03/15 02:45:10;;;;;;;;;;;;;;;4.13;81.78;102649.78;5006924;28;19921;-72
2022/03/15 02:47:36;;;;;;;;;;;;;;;4.10;81.44;102642.75;5006036;28;20024;-72
2022/03/15 02:50:01;;;;;;;;;;;;;;;4.11;81.53;102649.72;5004050;28;20261;-72
2022/03/15 02:52:28;;;;;;;;;;;;;;;4.10;81.57;102641.88;5010201;28;19924;-72
2022/03/15 02:54:54;;;;;;;;;;;;;;;4.09;81.17;102646.16;5008623;28;20003;-72
2022/03/15 02:57:24;;;;;;;;;;;;;;;4.09;83.37;102643.56;5012948;28;20334;-72
2022/03/15 02:59:50;;;;;;;;;;;;;;;4.14;83.38;102638.59;5015694;28;20448;-72
2022/03/15 03:02:15;;;;;;;;;;;;;;;4.15;83.19;102641.25;5029666;28;19964;-72
2022/03/15 03:04:41;;;;;;;;;;;;;;;4.18;82.76;102634.41;5031859;28;19947;-72
2022/03/15 03:07:06;;;;;;;;;;;;;;;4.19;82.41;102631.88;5016427;28;20327;-72
2022/03/15 03:09:32;;;;;;;;;;;;;;;4.20;82.45;102628.47;5013738;28;19918;-72
2022/03/15 03:12:00;;;;;;;;;;;;;;;4.20;81.50;102622.41;5015807;28;19921;-73
2022/03/15 03:14:25;;;;;;;;;;;;;;;4.19;81.19;102620.63;5029302;28;20020;-72
2022/03/15 03:16:51;;;;;;;;;;;;;;;4.16;81.06;102611.88;5015257;28;20012;-72
2022/03/15 03:19:17;;;;;;;;;;;;;;;4.13;81.14;102603.94;5011157;28;19977;-72
2022/03/15 03:21:42;;;;;;;;;;;;;;;4.13;80.71;102611.75;5029920;28;19912;-72
2022/03/15 03:24:09;;;;;;;;;;;;;;;4.13;78.37;102611.75;5011459;28;19917;-73
2022/03/15 03:26:40;;;;;;;;;;;;;;;4.10;78.97;102608.13;5018236;28;19939;-72
2022/03/15 03:29:09;;;;;;;;;;;;;;;4.10;78.73;102609.00;5032019;28;19917;-72
2022/03/15 03:31:42;;;;;;;;;;;;;;;4.09;79.57;102612.41;5029475;28;20293;-73
2022/03/15 03:34:08;;;;;;;;;;;;;;;4.07;80.12;102611.47;5033462;28;19913;-72
2022/03/15 03:36:36;;;;;;;;;;;;;;;4.06;80.26;102606.22;5026164;28;19923;-72
2022/03/15 03:39:01;;;;;;;;;;;;;;;4.05;79.15;102604.44;5032869;28;19975;-72
2022/03/15 03:41:27;;;;;;;;;;;;;;;4.02;78.53;102607.78;5033143;28;19913;-72
2022/03/15 03:43:52;;;;;;;;;;;;;;;4.04;79.93;102605.25;5015412;28;19962;-73
2022/03/15 03:46:17;;;;;;;;;;;;;;;4.02;79.95;102601.72;5010821;28;19917;-73
2022/03/15 03:48:44;;;;;;;;;;;;;;;4.00;80.06;102599.06;5016141;28;19917;-73
2022/03/15 03:51:11;;;;;;;;;;;;;;;3.99;80.11;102602.47;5031862;28;20372;-72
2022/03/15 03:53:36;;;;;;;;;;;;;;;3.99;79.86;102602.47;5006483;28;20436;-73
2022/03/15 03:56:04;;;;;;;;;;;;;;;3.99;80.96;102592.09;5023476;28;19925;-72
2022/03/15 03:58:29;;;;;;;;;;;;;;;3.99;81.96;102598.19;5032588;28;19994;-72
2022/03/15 04:00:54;;;;;;;;;;;;;;;3.98;82.14;102596.41;5013678;28;20077;-72
2022/03/15 04:03:20;;;;;;;;;;;;;;;3.99;81.74;102593.00;5023717;28;19998;-72
2022/03/15 04:05:46;;;;;;;;;;;;;;;4.02;81.32;102591.34;5012693;28;20301;-72
2022/03/15 04:08:12;;;;;;;;;;;;;;;4.02;80.38;102601.72;5031569;28;19920;-72
2022/03/15 04:10:37;;;;;;;;;;;;;;;4.00;80.54;102591.28;5014483;28;19936;-72
2022/03/15 04:13:04;;;;;;;;;;;;;;;3.99;80.97;102598.19;5013374;28;19989;-72
2022/03/15 04:15:32;;;;;;;;;;;;;;;3.97;80.42;102596.34;5028060;28;19972;-72
2022/03/15 04:17:58;;;;;;;;;;;;;;;3.95;80.79;102605.75;5025562;28;19940;-72
2022/03/15 04:20:23;;;;;;;;;;;;;;;3.95;80.49;102603.16;5012434;28;20002;-72
2022/03/15 04:22:49;;;;;;;;;;;;;;;3.93;80.55;102597.91;5024696;28;19917;-72
2022/03/15 04:25:14;;;;;;;;;;;;;;;3.92;80.56;102595.25;5011608;28;20270;-72
2022/03/15 04:27:40;;;;;;;;;;;;;;;3.93;80.08;102597.03;5013393;28;19917;-73
2022/03/15 04:30:05;;;;;;;;;;;;;;;3.91;80.45;102599.56;5011359;28;20373;-72
2022/03/15 04:32:31;;;;;;;;;;;;;;;3.91;79.64;102599.56;5010370;28;19913;-72
2022/03/15 04:34:56;;;;;;;;;;;;;;;3.93;79.03;102608.28;5031752;28;20342;-72
2022/03/15 04:37:23;;;;;;;;;;;;;;;3.93;78.65;102607.41;5008529;28;20413;-72
2022/03/15 04:39:49;;;;;;;;;;;;;;;3.91;77.68;102603.88;5022831;28;19917;-73
2022/03/15 04:42:14;;;;;;;;;;;;;;;3.90;79.31;102594.31;5008211;28;19979;-72
2022/03/15 04:44:40;;;;;;;;;;;;;;;3.89;79.33;102596.00;5030680;28;19975;-71
2022/03/15 04:47:05;;;;;;;;;;;;;;;3.93;77.04;102589.25;5013151;28;19921;-72
2022/03/15 04:49:31;;;;;;;;;;;;;;;3.93;77.51;102586.66;5022664;28;19956;-71
2022/03/15 04:51:57;;;;;;;;;;;;;;;3.92;77.98;102584.88;5017145;28;19921;-71
2022/03/15 04:54:22;;;;;;;;;;;;;;;3.91;78.43;102588.31;5011850;28;19910;-72
2022/03/15 04:56:47;;;;;;;;;;;;;;;3.87;79.19;102583.78;5028266;28;19921;-72
2022/03/15 04:59:13;;;;;;;;;;;;;;;3.84;80.70;102583.66;5012004;28;19917;-72
2022/03/15 05:01:38;;;;;;;;;;;;;;;3.84;80.35;102592.31;5013817;28;19917;-72
2022/03/15 05:04:03;;;;;;;;;;;;;;;3.84;80.72;102581.06;5014823;28;19940;-72
2022/03/15 05:06:29;;;;;;;;;;;;;;;3.85;81.16;102580.22;5010507;28;20023;-73
2022/03/15 05:08:54;;;;;;;;;;;;;;;3.85;82.03;102583.72;5014827;28;19917;-72
2022/03/15 05:11:22;;;;;;;;;;;;;;;3.86;81.16;102574.22;5010806;28;19928;-72
2022/03/15 05:13:48;;;;;;;;;;;;;;;3.87;81.29;102570.84;5013859;28;19921;-73
2022/03/15 05:16:18;;;;;;;;;;;;;;;3.88;80.15;102567.38;5010144;28;19928;-72
2022/03/15 05:18:54;;;;;;;;;;;;;;;3.87;79.40;102573.41;5031561;28;20389;-72
2022/03/15 05:21:23;;;;;;;;;;;;;;;3.86;80.00;102574.22;5045255;28;19913;-72
2022/03/15 05:23:49;;;;;;;;;;;;;;;3.84;79.67;102570.69;5025328;28;19917;-72
2022/03/15 05:26:15;;;;;;;;;;;;;;;3.83;80.31;102572.38;5026678;28;19913;-72
2022/03/15 05:28:41;;;;;;;;;;;;;;;3.81;80.62;102569.72;5026237;28;19920;-72
2022/03/15 05:31:07;;;;;;;;;;;;;;;3.80;80.23;102570.53;5024571;28;20339;-72
2022/03/15 05:33:33;;;;;;;;;;;;;;;3.79;79.71;102576.56;5028728;28;19940;-72
2022/03/15 05:35:58;;;;;;;;;;;;;;;3.79;80.44;102575.66;5027898;28;19923;-72
2022/03/15 05:38:24;;;;;;;;;;;;;;;3.76;79.79;102571.22;5025600;28;19935;-72
2022/03/15 05:40:49;;;;;;;;;;;;;;;3.78;78.97;102571.31;5030368;28;19920;-72
2022/03/15 05:43:14;;;;;;;;;;;;;;;3.78;79.37;102571.31;5028217;28;19917;-72
2022/03/15 05:45:40;;;;;;;;;;;;;;;3.78;77.95;102561.81;5008568;28;19917;-72
2022/03/15 05:48:08;;;;;;;;;;;;;;;3.79;79.20;102563.59;5006301;28;19920;-72
2022/03/15 05:50:33;;;;;;;;;;;;;;;3.77;79.33;102564.34;5010517;28;19948;-73
2022/03/15 05:53:04;;;;;;;;;;;;;;;3.75;79.62;102559.09;5005025;28;19959;-72
2022/03/15 05:55:30;;;;;;;;;;;;;;;3.74;79.26;102551.25;5012172;28;20024;-72
2022/03/15 05:57:56;;;;;;;;;;;;;;;3.76;78.66;102555.66;5023718;28;20076;-72
2022/03/15 06:00:24;;;;;;;;;;;;;;;3.77;79.29;102554.84;5013945;28;19923;-73
2022/03/15 06:02:51;;;;;;;;;;;;;;;3.79;78.38;102555.81;5011777;28;19917;-72
2022/03/15 06:05:17;;;;;;;;;;;;;;;3.82;79.69;102557.63;5030320;28;20384;-72
2022/03/15 06:07:43;;;;;;;;;;;;;;;3.86;78.03;102553.50;5007160;28;19920;-72
2022/03/15 06:10:08;;;;;;;;;;;;;;;3.89;77.02;102551.03;5013024;28;19996;-73
2022/03/15 06:12:33;;;;;;;;;;;;;;;3.88;77.29;102551.81;5012329;28;20377;-72
2022/03/15 06:14:59;;;;;;;;;;;;;;;3.88;79.03;102552.75;5003899;28;19929;-73
2022/03/15 06:17:25;;;;;;;;;;;;;;;3.88;78.41;102546.66;5012967;28;19924;-73
2022/03/15 06:19:50;;;;;;;;;;;;;;;3.91;77.62;102541.63;5010250;28;19925;-73
2022/03/15 06:22:15;;;;;;;;;;;;;;;3.95;78.31;102540.91;5020596;28;19979;-73
2022/03/15 06:24:41;;;;;;;;;;;;;;;3.98;78.57;102536.75;5019402;28;19917;-73
2022/03/15 06:27:06;;;;;;;;;;;;;;;4.01;79.09;102540.28;5013577;28;19978;-72
2022/03/15 06:29:32;;;;;;;;;;;;;;;4.01;77.36;102541.19;5018744;28;20032;-72
2022/03/15 06:31:58;;;;;;;;;;;;;;;4.02;78.12;102535.16;5013122;28;20374;-73
2022/03/15 06:34:24;;;;;;;;;;;;;;;4.01;79.75;102538.59;5029586;28;19920;-72
2022/03/15 06:36:49;;;;;;;;;;;;;;;4.02;79.38;102529.97;5004199;28;19921;-72
2022/03/15 06:39:15;;;;;;;;;;;;;;;4.03;78.64;102526.56;5002556;28;19921;-72
2022/03/15 06:41:43;;;;;;;;;;;;;;;4.07;78.03;102528.47;5025683;28;19924;-72
2022/03/15 06:44:09;;;;;;;;;;;;;;;4.11;77.70;102534.69;5014041;28;19917;-72
2022/03/15 06:46:34;;;;;;;;;;;;;;;4.15;77.58;102533.97;5026659;28;20358;-72
2022/03/15 06:49:00;;;;;;;;;;;;;;;4.17;78.23;102532.34;5029035;28;20022;-72
2022/03/15 06:51:28;;;;;;;;;;;;;;;4.19;77.57;102529.81;5019928;28;19913;-73
2022/03/15 06:53:53;;;;;;;;;;;;;;;4.22;77.32;102527.34;4997609;28;20638;-72
2022/03/15 06:56:20;;;;;;;;;;;;;;;4.23;77.72;102523.91;5006054;28;19937;-72
2022/03/15 06:58:45;;;;;;;;;;;;;;;4.36;77.28;102528.78;5006506;28;19921;-72
2022/03/15 07:01:11;;;;;;;;;;;;;;;4.39;77.55;102521.13;5011639;28;19928;-73
2022/03/15 07:03:36;;;;;;;;;;;;;;;4.45;77.04;102510.09;5009684;28;19964;-72
2022/03/15 07:06:02;;;;;;;;;;;;;;;4.49;76.73;102523.25;5024502;28;19921;-72
2022/03/15 07:08:27;;;;;;;;;;;;;;;4.52;77.41;102519.91;5018586;28;19944;-72
2022/03/15 07:10:53;;;;;;;;;;;;;;;4.56;78.06;102521.81;5022766;28;19999;-72
2022/03/15 07:13:18;;;;;;;;;;;;;;;4.60;77.88;102525.41;5010832;28;19975;-72
2022/03/15 07:15:44;;;;;;;;;;;;;;;4.61;78.71;102525.47;5026825;28;19924;-72
2022/03/15 07:18:09;;;;;;;;;;;;;;;4.67;77.98;102523.13;5022652;28;20354;-72
2022/03/15 07:20:37;;;;;;;;;;;;;;;4.72;77.17;102519.81;5003260;28;20284;-72
2022/03/15 07:23:02;;;;;;;;;;;;;;;4.84;77.30;102510.78;5020392;28;20266;-72
2022/03/15 07:25:28;;;;;;;;;;;;;;;4.88;76.82;102511.78;5006612;28;19924;-72
2022/03/15 07:27:53;;;;;;;;;;;;;;;4.95;76.99;102502.53;5011798;28;19917;-72
2022/03/15 07:30:19;;;;;;;;;;;;;;;5.02;77.64;102504.53;5012571;28;19921;-72
2022/03/15 07:32:44;;;;;;;;;;;;;;;5.06;77.00;102501.22;5029729;28;20008;-72
2022/03/15 07:35:10;;;;;;;;;;;;;;;5.10;77.07;102500.50;5017530;28;20300;-72
2022/03/15 07:37:36;;;;;;;;;;;;;;;5.10;77.51;102497.91;5024609;28;19924;-72
2022/03/15 07:40:06;;;;;;;;;;;;;;;5.13;77.28;102495.44;5015280;28;19921;-73
2022/03/15 07:42:31;;;;;;;;;;;;;;;5.19;77.38;102487.84;5026933;28;19913;-72
2022/03/15 07:44:59;;;;;;;;;;;;;;;5.23;77.87;102487.94;5013761;28;19921;-73
2022/03/15 07:47:24;;;;;;;;;;;;;;;5.31;77.09;102496.94;5011062;28;19924;-73
2022/03/15 07:49:50;;;;;;;;;;;;;;;5.34;77.25;102486.63;5025160;28;19913;-72
2022/03/15 07:52:16;;;;;;;;;;;;;;;5.41;76.58;102492.94;5007123;28;19943;-73
2022/03/15 07:54:42;;;;;;;;;;;;;;;5.49;76.91;102495.00;5025172;28;20313;-72
2022/03/15 07:57:09;;;;;;;;;;;;;;;5.59;76.71;102504.00;5016404;28;19916;-72
2022/03/15 07:59:34;;;;;;;;;;;;;;;5.60;77.86;102504.88;5032651;28;19913;-72
2022/03/15 08:02:00;;;;;;;;;;;;;;;5.62;78.62;102495.44;5011802;28;19923;-73
2022/03/15 08:04:25;;;;;;;;;;;;;;;5.68;78.57;102498.25;5008247;28;19924;-72
2022/03/15 08:06:50;;;;;;;;;;;;;;;5.73;77.67;102492.38;5032971;28;19909;-72
2022/03/15 08:09:19;;;;;;;;;;;;;;;5.81;77.31;102497.84;5016674;28;19918;-72
2022/03/15 08:11:45;;;;;;;;;;;;;;;5.82;77.76;102489.19;5016910;28;19917;-72
2022/03/15 08:14:14;;;;;;;;;;;;;;;5.92;76.98;102481.69;5016990;28;20008;-72
2022/03/15 08:16:39;;;;;;;;;;;;;;;5.98;76.96;102484.56;5032337;28;19917;-72
2022/03/15 08:19:05;;;;;;;;;;;;;;;5.97;77.69;102486.25;5013483;28;20291;-73
2022/03/15 08:21:31;;;;;;;;;;;;;;;5.97;77.31;102475.84;5032338;28;19979;-73
2022/03/15 08:23:59;;;;;;;;;;;;;;;6.03;77.33;102486.50;5013388;28;19921;-73
2022/03/15 08:26:24;;;;;;;;;;;;;;;6.18;76.20;102480.03;5021452;28;19917;-72
2022/03/15 08:28:49;;;;;;;;;;;;;;;6.23;76.09;102481.94;5016655;28;19913;-73
2022/03/15 08:31:15;;;;;;;;;;;;;;;6.17;76.05;102473.91;5014935;28;20306;-72
2022/03/15 08:33:41;;;;;;;;;;;;;;;6.26;76.40;102475.91;5016421;28;19917;-72
2022/03/15 08:36:06;;;;;;;;;;;;;;;6.24;77.06;102473.28;5016106;28;19975;-73
2022/03/15 08:38:32;;;;;;;;;;;;;;;6.34;75.77;102469.25;5012942;28;20282;-73
2022/03/15 08:40:58;;;;;;;;;;;;;;;6.41;75.68;102470.34;5016736;28;20004;-73
2022/03/15 08:43:24;;;;;;;;;;;;;;;6.48;75.80;102459.28;5032668;28;19920;-73
2022/03/15 08:45:49;;;;;;;;;;;;;;;6.48;76.28;102463.59;5032815;28;19901;-73
2022/03/15 08:48:15;;;;;;;;;;;;;;;6.56;75.75;102462.09;5014753;28;19924;-73
2022/03/15 08:50:40;;;;;;;;;;;;;;;6.56;75.56;102457.78;5031926;28;19909;-73
2022/03/15 08:53:05;;;;;;;;;;;;;;;6.66;75.61;102458.06;5015743;28;19936;-74
2022/03/15 08:55:31;;;;;;;;;;;;;;;6.65;75.62;102456.28;5032557;28;19913;-74
2022/03/15 08:57:57;;;;;;;;;;;;;;;6.69;75.48;102451.22;5032112;28;19960;-73
2022/03/15 09:00:22;;;;;;;;;;;;;;;6.80;75.77;102450.69;5032489;28;19994;-73
2022/03/15 09:02:48;;;;;;;;;;;;;;;6.81;75.60;102450.72;5031527;28;19913;-73
2022/03/15 09:05:18;;;;;;;;;;;;;;;6.87;75.42;102445.69;5015252;28;19939;-73
2022/03/15 09:07:45;;;;;;;;;;;;;;;6.93;75.12;102448.44;5031713;28;19916;-73
2022/03/15 09:10:10;;;;;;;;;;;;;;;7.00;76.06;102449.53;5031889;28;19913;-73
2022/03/15 09:12:36;;;;;;;;;;;;;;;7.07;75.93;102445.38;5015553;28;19919;-73
2022/03/15 09:15:01;;;;;;;;;;;;;;;7.14;74.68;102438.59;5012506;28;20004;-73
2022/03/15 09:17:26;;;;;;;;;;;;;;;7.21;74.84;102443.16;5013125;28;19924;-73
2022/03/15 09:19:52;;;;;;;;;;;;;;;7.35;74.53;102439.19;4996210;28;19914;-72
2022/03/15 09:22:18;;;;;;;;;;;;;;;7.30;74.60;102435.59;4997040;28;20362;-73
2022/03/15 09:24:43;;;;;;;;;;;;;;;7.36;74.81;102442.69;5032307;28;19905;-72
2022/03/15 09:27:08;;;;;;;;;;;;;;;7.37;74.52;102436.63;5015269;28;20280;-73
2022/03/15 09:29:36;;;;;;;;;;;;;;;7.47;74.21;102436.06;5031883;28;19916;-72
2022/03/15 09:32:02;;;;;;;;;;;;;;;7.49;73.52;102436.97;5015158;28;19986;-72
2022/03/15 09:34:27;;;;;;;;;;;;;;;7.54;73.86;102435.38;5015324;28;20263;-72
2022/03/15 09:36:59;;;;;;;;;;;;;;;7.70;73.68;102440.97;5030838;28;19921;-73
2022/03/15 09:39:24;;;;;;;;;;;;;;;7.72;72.97;102436.69;5014855;28;19929;-73
2022/03/15 09:41:53;;;;;;;;;;;;;;;7.73;72.99;102438.44;5015081;28;19966;-73
2022/03/15 09:44:18;;;;;;;;;;;;;;;7.85;73.06;102433.53;5031508;28;20319;-73
2022/03/15 09:46:50;;;;;;;;;;;;;;;7.89;72.07;102435.38;5031078;28;20000;-72
2022/03/15 09:49:18;;;;;;;;;;;;;;;7.88;73.03;102436.22;5031236;28;19921;-72
2022/03/15 09:51:44;;;;;;;;;;;;;;;7.91;72.81;102428.47;5014831;28;19938;-72
2022/03/15 09:54:09;;;;;;;;;;;;;;;8.01;72.29;102428.69;5031127;28;19913;-71
2022/03/15 09:56:38;;;;;;;;;;;;;;;8.04;72.80;102428.78;5031378;28;19913;-73
2022/03/15 09:59:06;;;;;;;;;;;;;;;8.09;72.55;102427.16;5031217;28;20384;-73
2022/03/15 10:01:31;;;;;;;;;;;;;;;8.12;71.23;102427.25;5030026;28;20392;-73
2022/03/15 10:03:56;;;;;;;;;;;;;;;8.15;72.03;102432.53;5027919;28;20008;-73
2022/03/15 10:06:23;;;;;;;;;;;;;;;8.25;72.30;102431.91;5010840;28;19918;-74
2022/03/15 10:08:48;;;;;;;;;;;;;;;8.35;72.48;102432.09;5011867;28;20354;-73
2022/03/15 10:11:14;;;;;;;;;;;;;;;8.46;71.86;102422.81;5004235;28;19967;-73
2022/03/15 10:13:40;;;;;;;;;;;;;;;8.56;71.74;102419.56;5014578;28;20289;-74
2022/03/15 10:16:07;;;;;;;;;;;;;;;8.65;72.03;102413.66;5031181;28;19917;-73
2022/03/15 10:18:32;;;;;;;;;;;;;;;8.72;71.92;102418.16;5030521;28;19915;-73
2022/03/15 10:20:57;;;;;;;;;;;;;;;8.83;71.81;102423.59;5031116;28;19913;-73
2022/03/15 10:23:29;;;;;;;;;;;;;;;8.91;71.53;102414.19;5013515;28;20003;-73
2022/03/15 10:25:55;;;;;;;;;;;;;;;9.05;71.45;102418.81;5014366;28;19955;-73
2022/03/15 10:28:22;;;;;;;;;;;;;;;9.13;71.35;102417.25;5014680;28;19921;-74
2022/03/15 10:30:48;;;;;;;;;;;;;;;9.21;71.30;102414.75;5030146;28;19948;-74
2022/03/15 10:33:15;;;;;;;;;;;;;;;9.24;70.73;102415.72;5013759;28;19935;-74
2022/03/15 10:35:41;;;;;;;;;;;;;;;9.32;71.04;102408.00;5030930;28;19936;-73
2022/03/15 10:38:07;;;;;;;;;;;;;;;9.43;70.83;102400.34;5027253;28;20031;-74
2022/03/15 10:40:33;;;;;;;;;;;;;;;9.49;70.22;102400.47;5029963;28;20360;-75
2022/03/15 10:43:03;;;;;;;;;;;;;;;9.54;70.22;102394.44;5030613;28;20007;-74
2022/03/15 10:45:28;;;;;;;;;;;;;;;9.58;70.04;102394.50;5013859;28;19940;-74
2022/03/15 10:47:54;;;;;;;;;;;;;;;9.63;69.93;102388.50;5014027;28;20297;-74
2022/03/15 10:50:23;;;;;;;;;;;;;;;9.67;69.15;102386.81;5030101;28;19955;-74
2022/03/15 10:52:49;;;;;;;;;;;;;;;9.69;68.20;102382.47;5030248;28;19970;-74
2022/03/15 10:55:29;;;;;;;;;;;;;;;9.64;68.75;102381.50;5030710;28;19999;-74
2022/03/15 10:57:56;;;;;;;;;;;;;;;9.65;68.38;102376.31;5030247;28;20273;-74
2022/03/15 11:00:26;;;;;;;;;;;;;;;9.64;68.36;102374.56;5030221;28;20230;-73
2022/03/15 11:02:52;;;;;;;;;;;;;;;9.65;68.58;102371.06;5030189;28;19974;-74
2022/03/15 11:05:24;;;;;;;;;;;;;;;9.75;66.96;102364.25;5030709;28;19913;-74
2022/03/15 11:07:50;;;;;;;;;;;;;;;9.68;67.70;102355.44;5029384;28;19909;-74
2022/03/15 11:10:15;;;;;;;;;;;;;;;9.68;67.67;102355.44;5014242;28;20328;-73
2022/03/15 11:13:02;;;;;;;;;;;;;;;9.73;67.90;102358.13;5030129;28;20333;-73
2022/03/15 11:15:30;;;;;;;;;;;;;;;9.80;67.78;102356.50;5032601;28;19972;-74
2022/03/15 11:18:03;;;;;;;;;;;;;;;9.92;66.75;102347.94;5017164;28;19920;-73
2022/03/15 11:20:34;;;;;;;;;;;;;;;9.84;66.61;102351.31;5033668;28;19920;-74
2022/03/15 11:23:01;;;;;;;;;;;;;;;9.78;66.53;102340.72;5033556;28;19913;-76
2022/03/15 11:25:33;;;;;;;;;;;;;;;9.75;67.25;102338.06;5034247;28;19919;-73
2022/03/15 11:27:59;;;;;;;;;;;;;;;9.80;67.46;102343.41;5033586;28;20214;-74
2022/03/15 11:30:25;;;;;;;;;;;;;;;9.98;66.70;102337.53;5033953;28;19913;-75
2022/03/15 11:32:53;;;;;;;;;;;;;;;9.94;67.02;102336.63;5033678;28;19916;-74
2022/03/15 11:35:22;;;;;;;;;;;;;;;10.03;66.78;102328.91;5033957;28;19913;-76
2022/03/15 11:37:52;;;;;;;;;;;;;;;9.97;67.08;102323.59;5017225;28;19913;-75
2022/03/15 11:40:19;;;;;;;;;;;;;;;10.06;66.75;102328.94;5033401;28;19925;-74
2022/03/15 11:42:57;;;;;;;;;;;;;;;9.97;66.93;102320.97;5033742;28;19909;-77
2022/03/15 11:45:44;;;;;;;;;;;;;;;9.95;66.71;102321.78;5033491;28;19959;-74
2022/03/15 11:48:09;;;;;;;;;;;;;;;9.94;67.29;102310.44;5033678;28;19913;-77
2022/03/15 11:50:53;;;;;;;;;;;;;;;9.92;66.67;102316.50;5033137;28;19924;-76
2022/03/15 11:53:30;;;;;;;;;;;;;;;9.98;67.26;102317.47;5033274;28;19905;-76
2022/03/15 11:56:02;;;;;;;;;;;;;;;10.02;66.98;102306.19;5031935;28;19917;-77
2022/03/15 11:58:28;;;;;;;;;;;;;;;10.10;67.28;102306.31;5033465;28;19913;-77
2022/03/15 12:00:56;;;;;;;;;;;;;;;10.20;67.25;102296.81;5033678;28;20315;-77
2022/03/15 12:03:26;;;;;;;;;;;;;;;10.36;67.21;102296.19;5031956;28;19909;-76
2022/03/15 12:05:53;;;;;;;;;;;;;;;10.49;66.19;102291.09;5017436;28;20090;-76
2022/03/15 12:08:21;;;;;;;;;;;;;;;10.62;66.45;102289.50;5033172;28;19909;-76
2022/03/15 12:10:50;;;;;;;;;;;;;;;10.73;66.34;102278.28;5033560;28;19909;-76
2022/03/15 12:13:15;;;;;;;;;;;;;;;10.81;65.93;102285.34;5033278;28;20362;-77
2022/03/15 12:15:44;;;;;;;;;;;;;;;10.87;65.25;102286.25;5032758;28;19951;-77
2022/03/15 12:21:05;;;;;;;;;;;;;;;10.90;64.43;102265.34;5033421;28;19917;-76
2022/03/15 12:23:44;;;;;;;;;;;;;;;10.90;63.74;102265.34;5032097;28;20004;-76
2022/03/15 12:26:26;;;;;;;;;;;;;;;11.01;64.03;102261.94;5026955;28;19956;-77
2022/03/15 12:28:57;;;;;;;;;;;;;;;11.30;64.23;102256.06;5036842;28;20369;-77
2022/03/15 12:31:31;;;;;;;;;;;;;;;11.65;63.17;102253.69;5031999;28;20301;-77
2022/03/15 12:34:04;;;;;;;;;;;;;;;11.91;62.93;102248.56;5032776;28;20381;-77
2022/03/15 12:36:43;;;;;;;;;;;;;;;11.99;59.83;102246.00;5027864;28;20437;-76
2022/03/15 12:39:10;;;;;;;;;;;;;;;11.87;60.80;102252.06;5026234;28;19909;-77
2022/03/15 12:41:35;;;;;;;;;;;;;;;11.78;62.23;102249.38;5020318;28;19917;-77
2022/03/15 12:44:00;;;;;;;;;;;;;;;11.72;61.65;102252.84;5024035;28;19924;-77
2022/03/15 12:46:30;;;;;;;;;;;;;;;11.65;62.04;102251.06;5013044;28;20254;-77